sensor_id;sensor_type;location;lat;lon;timestamp;pressure;altitude;pressure_sealevel;temperature;humidity
39363;BME280;25088;43.238;23.110;2022-11-20T00:03:37;95753.94;;;9.41;100.00
39363;BME280;25088;43.238;23.110;2022-11-20T00:06:06;95798.66;;;9.50;100.00
39363;BME280;25088;43.238;23.110;2022-11-20T00:08:32;95781.53;;;9.60;100.00
39363;BME280;25088;43.238;23.110;2022-11-20T00:11:11;95788.91;;;9.65;100.00
39363;BME280;25088;43.238;23.110;2022-11-20T00:13:37;95767.94;;;9.65;100.00
39363;BME280;25088;43.238;23.110;2022-11-20T00:16:05;95772.78;;;9.53;100.00
39363;BME280;25088;43.238;23.110;2022-11-20T00:18:32;95777.41;;;9.52;100.00
39363;BME280;25088;43.238;23.110;2022-11-20T00:21:07;95788.56;;;9.46;100.00
39363;BME280;25088;43.238;23.110;2022-11-20T00:23:32;95761.84;;;9.43;100.00
39363;BME280;25088;43.238;23.110;2022-11-20T00:26:18;95753.38;;;9.39;100.00
39363;BME280;25088;43.238;23.110;2022-11-20T00:28:49;95747.91;;;9.29;100.00
39363;BME280;25088;43.238;23.110;2022-11-20T00:31:15;95753.97;;;9.46;100.00
39363;BME280;25088;43.238;23.110;2022-11-20T00:33:41;95787.50;;;9.57;100.00
39363;BME280;25088;43.238;23.110;2022-11-20T00:36:28;95787.47;;;9.47;100.00
39363;BME280;25088;43.238;23.110;2022-11-20T00:38:55;95794.84;;;9.46;100.00
39363;BME280;25088;43.238;23.110;2022-11-20T00:41:22;95771.66;;;9.49;100.00
39363;BME280;25088;43.238;23.110;2022-11-20T00:43:49;95817.41;;;9.42;100.00
39363;BME280;25088;43.238;23.110;2022-11-20T00:46:17;95798.94;;;9.54;100.00
39363;BME280;25088;43.238;23.110;2022-11-20T00:48:43;95825.13;;;9.60;100.00
39363;BME280;25088;43.238;23.110;2022-11-20T00:51:11;95806.59;;;9.62;100.00
39363;BME280;25088;43.238;23.110;2022-11-20T00:53:37;95805.28;;;9.70;100.00
39363;BME280;25088;43.238;23.110;2022-11-20T00:56:05;95809.38;;;9.77;100.00
39363;BME280;25088;43.238;23.110;2022-11-20T00:58:33;95804.72;;;9.73;100.00
39363;BME280;25088;43.238;23.110;2022-11-20T01:01:06;95804.47;;;9.79;100.00
39363;BME280;25088;43.238;23.110;2022-11-20T01:03:36;95770.13;;;9.89;100.00
39363;BME280;25088;43.238;23.110;2022-11-20T01:06:07;95763.88;;;9.83;100.00
39363;BME280;25088;43.238;23.110;2022-11-20T01:08:35;95791.38;;;9.76;100.00
39363;BME280;25088;43.238;23.110;2022-11-20T01:11:07;95767.94;;;9.75;100.00
39363;BME280;25088;43.238;23.110;2022-11-20T01:13:33;95779.38;;;9.77;100.00
39363;BME280;25088;43.238;23.110;2022-11-20T01:18:30;95755.28;;;9.33;100.00
39363;BME280;25088;43.238;23.110;2022-11-20T01:21:00;95759.09;;;9.32;100.00
39363;BME280;25088;43.238;23.110;2022-11-20T01:23:26;95765.66;;;9.37;100.00
39363;BME280;25088;43.238;23.110;2022-11-20T01:25:51;95789.56;;;9.29;100.00
39363;BME280;25088;43.238;23.110;2022-11-20T01:28:17;95804.06;;;9.40;100.00
39363;BME280;25088;43.238;23.110;2022-11-20T01:30:42;95830.28;;;9.56;100.00
39363;BME280;25088;43.238;23.110;2022-11-20T01:33:08;95835.16;;;9.49;100.00
39363;BME280;25088;43.238;23.110;2022-11-20T01:35:33;95834.06;;;9.45;100.00
39363;BME280;25088;43.238;23.110;2022-11-20T01:37:58;95815.78;;;9.41;100.00
39363;BME280;25088;43.238;23.110;2022-11-20T01:40:24;95808.75;;;9.50;100.00
39363;BME280;25088;43.238;23.110;2022-11-20T01:43:01;95821.25;;;9.41;100.00
39363;BME280;25088;43.238;23.110;2022-11-20T01:48:12;95839.97;;;9.27;100.00
39363;BME280;25088;43.238;23.110;2022-11-20T01:50:39;95848.88;;;9.17;100.00
39363;BME280;25088;43.238;23.110;2022-11-20T01:53:08;95867.44;;;9.20;100.00
39363;BME280;25088;43.238;23.110;2022-11-20T01:55:39;95873.94;;;9.19;100.00
39363;BME280;25088;43.238;23.110;2022-11-20T01:58:07;95879.94;;;9.16;100.00
39363;BME280;25088;43.238;23.110;2022-11-20T02:00:33;95875.94;;;9.34;100.00
39363;BME280;25088;43.238;23.110;2022-11-20T02:03:07;95888.78;;;9.39;100.00
39363;BME280;25088;43.238;23.110;2022-11-20T02:05:38;95883.31;;;9.39;100.00
39363;BME280;25088;43.238;23.110;2022-11-20T02:08:07;95873.00;;;9.41;100.00
39363;BME280;25088;43.238;23.110;2022-11-20T02:10:32;95885.03;;;9.50;100.00
39363;BME280;25088;43.238;23.110;2022-11-20T02:12:58;95879.03;;;9.53;100.00
39363;BME280;25088;43.238;23.110;2022-11-20T02:15:43;95861.34;;;9.50;100.00
39363;BME280;25088;43.238;23.110;2022-11-20T02:18:10;95874.72;;;9.62;100.00
39363;BME280;25088;43.238;23.110;2022-11-20T02:20:36;95876.13;;;9.65;100.00
39363;BME280;25088;43.238;23.110;2022-11-20T02:23:12;95886.19;;;9.69;100.00
39363;BME280;25088;43.238;23.110;2022-11-20T02:25:41;95877.78;;;9.76;100.00
39363;BME280;25088;43.238;23.110;2022-11-20T02:28:08;95879.72;;;9.80;100.00
39363;BME280;25088;43.238;23.110;2022-11-20T02:30:33;95893.91;;;9.82;100.00
39363;BME280;25088;43.238;23.110;2022-11-20T02:32:59;95871.31;;;9.92;100.00
39363;BME280;25088;43.238;23.110;2022-11-20T02:37:53;95885.25;;;10.01;100.00
39363;BME280;25088;43.238;23.110;2022-11-20T02:40:20;95876.78;;;10.02;100.00
39363;BME280;25088;43.238;23.110;2022-11-20T02:42:46;95861.22;;;9.98;100.00
39363;BME280;25088;43.238;23.110;2022-11-20T02:45:11;95870.00;;;10.10;100.00
39363;BME280;25088;43.238;23.110;2022-11-20T02:47:37;95864.28;;;10.12;100.00
39363;BME280;25088;43.238;23.110;2022-11-20T02:50:04;95883.91;;;10.14;100.00
39363;BME280;25088;43.238;23.110;2022-11-20T02:52:30;95889.66;;;10.12;100.00
39363;BME280;25088;43.238;23.110;2022-11-20T02:54:55;95889.09;;;10.10;100.00
39363;BME280;25088;43.238;23.110;2022-11-20T02:57:21;95892.88;;;10.04;100.00
39363;BME280;25088;43.238;23.110;2022-11-20T02:59:46;95884.72;;;10.14;100.00
39363;BME280;25088;43.238;23.110;2022-11-20T03:02:12;95882.56;;;10.16;100.00
39363;BME280;25088;43.238;23.110;2022-11-20T03:04:37;95890.75;;;10.21;100.00
39363;BME280;25088;43.238;23.110;2022-11-20T03:07:04;95876.88;;;10.28;100.00
39363;BME280;25088;43.238;23.110;2022-11-20T03:09:30;95886.13;;;10.22;100.00
39363;BME280;25088;43.238;23.110;2022-11-20T03:11:56;95897.31;;;10.20;100.00
39363;BME280;25088;43.238;23.110;2022-11-20T03:14:21;95891.56;;;10.17;100.00
39363;BME280;25088;43.238;23.110;2022-11-20T03:16:47;95903.31;;;10.22;100.00
39363;BME280;25088;43.238;23.110;2022-11-20T03:19:13;95873.34;;;10.27;100.00
39363;BME280;25088;43.238;23.110;2022-11-20T03:21:38;95870.63;;;10.32;100.00
39363;BME280;25088;43.238;23.110;2022-11-20T03:24:04;95877.72;;;10.33;100.00
39363;BME280;25088;43.238;23.110;2022-11-20T03:26:30;95899.28;;;10.35;100.00
39363;BME280;25088;43.238;23.110;2022-11-20T03:29:00;95902.03;;;10.35;100.00
39363;BME280;25088;43.238;23.110;2022-11-20T03:31:29;95920.56;;;10.33;100.00
39363;BME280;25088;43.238;23.110;2022-11-20T03:33:56;95938.84;;;10.38;100.00
39363;BME280;25088;43.238;23.110;2022-11-20T03:36:21;95956.03;;;10.33;100.00
39363;BME280;25088;43.238;23.110;2022-11-20T03:38:47;95949.47;;;10.34;100.00
39363;BME280;25088;43.238;23.110;2022-11-20T03:41:16;95962.59;;;10.37;100.00
39363;BME280;25088;43.238;23.110;2022-11-20T03:43:47;95961.50;;;10.38;100.00
39363;BME280;25088;43.238;23.110;2022-11-20T03:46:12;95954.09;;;10.33;100.00
39363;BME280;25088;43.238;23.110;2022-11-20T03:48:38;95977.31;;;10.31;100.00
39363;BME280;25088;43.238;23.110;2022-11-20T03:51:14;95970.69;;;10.22;100.00
39363;BME280;25088;43.238;23.110;2022-11-20T03:53:41;95951.31;;;10.18;100.00
39363;BME280;25088;43.238;23.110;2022-11-20T03:56:08;95975.25;;;10.06;100.00
39363;BME280;25088;43.238;23.110;2022-11-20T03:58:35;95959.94;;;9.95;100.00
39363;BME280;25088;43.238;23.110;2022-11-20T04:01:19;95983.97;;;10.03;100.00
39363;BME280;25088;43.238;23.110;2022-11-20T04:03:45;95968.13;;;9.95;100.00
39363;BME280;25088;43.238;23.110;2022-11-20T04:06:13;95952.06;;;10.03;100.00
39363;BME280;25088;43.238;23.110;2022-11-20T04:08:40;95963.53;;;10.05;100.00
39363;BME280;25088;43.238;23.110;2022-11-20T04:11:17;95961.91;;;10.04;100.00
39363;BME280;25088;43.238;23.110;2022-11-20T04:13:47;95975.53;;;10.04;100.00
39363;BME280;25088;43.238;23.110;2022-11-20T04:16:13;95977.41;;;10.04;100.00
39363;BME280;25088;43.238;23.110;2022-11-20T04:18:39;95978.00;;;10.11;100.00
39363;BME280;25088;43.238;23.110;2022-11-20T04:21:05;95984.00;;;10.13;100.00
39363;BME280;25088;43.238;23.110;2022-11-20T04:23:31;95985.66;;;10.14;100.00
39363;BME280;25088;43.238;23.110;2022-11-20T04:26:08;95974.75;;;10.19;100.00
39363;BME280;25088;43.238;23.110;2022-11-20T04:28:34;95986.22;;;10.16;100.00
39363;BME280;25088;43.238;23.110;2022-11-20T04:31:14;95997.97;;;10.22;100.00
39363;BME280;25088;43.238;23.110;2022-11-20T04:33:40;95988.19;;;10.26;100.00
39363;BME280;25088;43.238;23.110;2022-11-20T04:36:26;95976.75;;;10.34;100.00
39363;BME280;25088;43.238;23.110;2022-11-20T04:38:53;95994.50;;;10.31;100.00
39363;BME280;25088;43.238;23.110;2022-11-20T04:41:20;96009.25;;;10.41;100.00
39363;BME280;25088;43.238;23.110;2022-11-20T04:43:47;95999.16;;;10.41;100.00
39363;BME280;25088;43.238;23.110;2022-11-20T04:46:17;95999.47;;;10.45;100.00
39363;BME280;25088;43.238;23.110;2022-11-20T04:48:43;95990.19;;;10.46;100.00
39363;BME280;25088;43.238;23.110;2022-11-20T04:51:09;95982.81;;;10.51;100.00
39363;BME280;25088;43.238;23.110;2022-11-20T04:53:34;95957.16;;;10.47;100.00
39363;BME280;25088;43.238;23.110;2022-11-20T04:56:07;95963.41;;;10.43;100.00
39363;BME280;25088;43.238;23.110;2022-11-20T04:58:34;95964.25;;;10.48;100.00
39363;BME280;25088;43.238;23.110;2022-11-20T05:01:12;95966.97;;;10.48;100.00
39363;BME280;25088;43.238;23.110;2022-11-20T05:03:39;95960.47;;;10.49;100.00
39363;BME280;25088;43.238;23.110;2022-11-20T05:06:06;95971.06;;;10.46;100.00
39363;BME280;25088;43.238;23.110;2022-11-20T05:08:32;95959.34;;;10.40;100.00
39363;BME280;25088;43.238;23.110;2022-11-20T05:11:09;95977.66;;;10.50;100.00
39363;BME280;25088;43.238;23.110;2022-11-20T05:13:35;95975.69;;;10.40;100.00
39363;BME280;25088;43.238;23.110;2022-11-20T05:16:06;96001.63;;;10.43;100.00
39363;BME280;25088;43.238;23.110;2022-11-20T05:18:33;96012.00;;;10.41;100.00
39363;BME280;25088;43.238;23.110;2022-11-20T05:20:59;96004.34;;;10.43;100.00
39363;BME280;25088;43.238;23.110;2022-11-20T05:23:25;96006.75;;;10.29;100.00
39363;BME280;25088;43.238;23.110;2022-11-20T05:25:55;96028.78;;;10.22;100.00
39363;BME280;25088;43.238;23.110;2022-11-20T05:28:22;96036.13;;;10.17;100.00
39363;BME280;25088;43.238;23.110;2022-11-20T05:30:48;96030.63;;;10.06;100.00
39363;BME280;25088;43.238;23.110;2022-11-20T05:33:14;96048.81;;;9.91;100.00
39363;BME280;25088;43.238;23.110;2022-11-20T05:35:39;96064.53;;;9.78;100.00
39363;BME280;25088;43.238;23.110;2022-11-20T05:38:05;96078.59;;;9.60;100.00
39363;BME280;25088;43.238;23.110;2022-11-20T05:40:30;96059.81;;;9.69;100.00
39363;BME280;25088;43.238;23.110;2022-11-20T05:42:56;96057.97;;;9.79;100.00
39363;BME280;25088;43.238;23.110;2022-11-20T05:45:21;96045.69;;;9.72;100.00
39363;BME280;25088;43.238;23.110;2022-11-20T05:47:47;96030.50;;;9.86;100.00
39363;BME280;25088;43.238;23.110;2022-11-20T05:50:13;96031.13;;;9.98;100.00
39363;BME280;25088;43.238;23.110;2022-11-20T05:52:39;96031.38;;;9.97;100.00
39363;BME280;25088;43.238;23.110;2022-11-20T05:55:05;96017.00;;;10.06;100.00
39363;BME280;25088;43.238;23.110;2022-11-20T05:57:31;96013.88;;;9.88;100.00
39363;BME280;25088;43.238;23.110;2022-11-20T05:59:56;96030.72;;;9.79;100.00
39363;BME280;25088;43.238;23.110;2022-11-20T06:02:22;96030.47;;;9.81;100.00
39363;BME280;25088;43.238;23.110;2022-11-20T06:04:47;96025.81;;;9.76;100.00
39363;BME280;25088;43.238;23.110;2022-11-20T06:07:13;96036.25;;;9.90;100.00
39363;BME280;25088;43.238;23.110;2022-11-20T06:09:39;96024.00;;;9.92;100.00
39363;BME280;25088;43.238;23.110;2022-11-20T06:12:05;96017.25;;;10.00;100.00
39363;BME280;25088;43.238;23.110;2022-11-20T06:14:30;96014.84;;;10.19;100.00
39363;BME280;25088;43.238;23.110;2022-11-20T06:16:56;96000.50;;;10.33;100.00
39363;BME280;25088;43.238;23.110;2022-11-20T06:19:22;96009.56;;;10.44;100.00
39363;BME280;25088;43.238;23.110;2022-11-20T06:21:48;96015.28;;;10.48;100.00
39363;BME280;25088;43.238;23.110;2022-11-20T06:24:14;96015.28;;;10.53;100.00
39363;BME280;25088;43.238;23.110;2022-11-20T06:26:40;96019.13;;;10.57;100.00
39363;BME280;25088;43.238;23.110;2022-11-20T06:29:05;95996.50;;;10.61;100.00
39363;BME280;25088;43.238;23.110;2022-11-20T06:31:31;95977.66;;;10.55;100.00
39363;BME280;25088;43.238;23.110;2022-11-20T06:34:00;95989.66;;;10.59;100.00
39363;BME280;25088;43.238;23.110;2022-11-20T06:36:26;96000.31;;;10.60;100.00
39363;BME280;25088;43.238;23.110;2022-11-20T06:38:52;95995.66;;;10.51;100.00
39363;BME280;25088;43.238;23.110;2022-11-20T06:41:19;95988.81;;;10.48;100.00
39363;BME280;25088;43.238;23.110;2022-11-20T06:43:45;95985.22;;;10.38;100.00
39363;BME280;25088;43.238;23.110;2022-11-20T06:46:11;95954.66;;;10.25;100.00
39363;BME280;25088;43.238;23.110;2022-11-20T06:48:37;95957.88;;;10.22;100.00
39363;BME280;25088;43.238;23.110;2022-11-20T06:51:04;95977.81;;;10.28;100.00
39363;BME280;25088;43.238;23.110;2022-11-20T06:53:30;95969.59;;;10.23;100.00
39363;BME280;25088;43.238;23.110;2022-11-20T06:55:56;95960.63;;;10.27;100.00
39363;BME280;25088;43.238;23.110;2022-11-20T06:58:29;95967.19;;;10.26;100.00
39363;BME280;25088;43.238;23.110;2022-11-20T07:01:04;95959.56;;;10.33;100.00
39363;BME280;25088;43.238;23.110;2022-11-20T07:03:30;95963.13;;;10.39;100.00
39363;BME280;25088;43.238;23.110;2022-11-20T07:05:57;95941.84;;;10.31;100.00
39363;BME280;25088;43.238;23.110;2022-11-20T07:08:23;95946.72;;;10.24;100.00
39363;BME280;25088;43.238;23.110;2022-11-20T07:10:49;95951.94;;;10.30;100.00
39363;BME280;25088;43.238;23.110;2022-11-20T07:13:15;95949.25;;;10.46;100.00
39363;BME280;25088;43.238;23.110;2022-11-20T07:15:40;95945.16;;;10.48;100.00
39363;BME280;25088;43.238;23.110;2022-11-20T07:18:05;95935.06;;;10.59;100.00
39363;BME280;25088;43.238;23.110;2022-11-20T07:20:31;95939.72;;;10.69;100.00
39363;BME280;25088;43.238;23.110;2022-11-20T07:22:57;95937.28;;;10.77;100.00
39363;BME280;25088;43.238;23.110;2022-11-20T07:25:24;95931.28;;;10.80;100.00
39363;BME280;25088;43.238;23.110;2022-11-20T07:27:50;95938.38;;;10.81;100.00
39363;BME280;25088;43.238;23.110;2022-11-20T07:30:16;95931.00;;;10.87;100.00
39363;BME280;25088;43.238;23.110;2022-11-20T07:32:42;95919.00;;;10.88;100.00
39363;BME280;25088;43.238;23.110;2022-11-20T07:35:08;95910.56;;;10.95;100.00
39363;BME280;25088;43.238;23.110;2022-11-20T07:37:36;95920.66;;;11.04;100.00
39363;BME280;25088;43.238;23.110;2022-11-20T07:40:02;95903.44;;;11.14;100.00
39363;BME280;25088;43.238;23.110;2022-11-20T07:42:28;95922.53;;;11.34;100.00
39363;BME280;25088;43.238;23.110;2022-11-20T07:44:53;95916.78;;;11.46;100.00
39363;BME280;25088;43.238;23.110;2022-11-20T07:47:18;95915.69;;;11.47;100.00
39363;BME280;25088;43.238;23.110;2022-11-20T07:49:44;95919.78;;;11.55;100.00
39363;BME280;25088;43.238;23.110;2022-11-20T07:52:09;95906.91;;;11.60;100.00
39363;BME280;25088;43.238;23.110;2022-11-20T07:54:35;95920.88;;;11.59;100.00
39363;BME280;25088;43.238;23.110;2022-11-20T07:57:00;95930.13;;;11.58;100.00
39363;BME280;25088;43.238;23.110;2022-11-20T07:59:26;95919.19;;;11.63;100.00
39363;BME280;25088;43.238;23.110;2022-11-20T08:01:51;95922.47;;;11.70;100.00
39363;BME280;25088;43.238;23.110;2022-11-20T08:04:17;95913.16;;;11.71;100.00
39363;BME280;25088;43.238;23.110;2022-11-20T08:06:42;95905.50;;;11.83;100.00
39363;BME280;25088;43.238;23.110;2022-11-20T08:09:08;95912.06;;;11.82;100.00
39363;BME280;25088;43.238;23.110;2022-11-20T08:11:34;95914.25;;;11.80;100.00
39363;BME280;25088;43.238;23.110;2022-11-20T08:14:18;95922.22;;;11.61;100.00
39363;BME280;25088;43.238;23.110;2022-11-20T08:16:48;95921.38;;;11.66;100.00
39363;BME280;25088;43.238;23.110;2022-11-20T08:19:16;95921.91;;;11.73;100.00
39363;BME280;25088;43.238;23.110;2022-11-20T08:21:42;95935.31;;;11.80;100.00
39363;BME280;25088;43.238;23.110;2022-11-20T08:24:08;95940.47;;;11.81;100.00
39363;BME280;25088;43.238;23.110;2022-11-20T08:26:35;95936.94;;;11.81;100.00
39363;BME280;25088;43.238;23.110;2022-11-20T08:29:02;95942.69;;;11.89;100.00
39363;BME280;25088;43.238;23.110;2022-11-20T08:31:28;95946.22;;;11.95;100.00
39363;BME280;25088;43.238;23.110;2022-11-20T08:33:54;95917.75;;;12.01;100.00
39363;BME280;25088;43.238;23.110;2022-11-20T08:36:20;95915.41;;;12.34;100.00
39363;BME280;25088;43.238;23.110;2022-11-20T08:38:47;95888.94;;;12.68;100.00
39363;BME280;25088;43.238;23.110;2022-11-20T08:41:13;95880.81;;;12.87;100.00
39363;BME280;25088;43.238;23.110;2022-11-20T08:43:55;95897.72;;;13.00;100.00
39363;BME280;25088;43.238;23.110;2022-11-20T08:46:22;95910.66;;;12.94;100.00
39363;BME280;25088;43.238;23.110;2022-11-20T08:48:48;95920.66;;;12.75;100.00
39363;BME280;25088;43.238;23.110;2022-11-20T08:51:13;95938.50;;;12.62;100.00
39363;BME280;25088;43.238;23.110;2022-11-20T08:53:39;95956.94;;;12.51;100.00
39363;BME280;25088;43.238;23.110;2022-11-20T08:56:05;95956.59;;;12.58;100.00
39363;BME280;25088;43.238;23.110;2022-11-20T08:58:31;95969.53;;;12.47;100.00
39363;BME280;25088;43.238;23.110;2022-11-20T09:00:56;95946.34;;;12.34;100.00
39363;BME280;25088;43.238;23.110;2022-11-20T09:03:22;95945.56;;;12.24;100.00
39363;BME280;25088;43.238;23.110;2022-11-20T09:05:48;95961.16;;;12.23;100.00
39363;BME280;25088;43.238;23.110;2022-11-20T09:08:14;95958.13;;;12.30;100.00
39363;BME280;25088;43.238;23.110;2022-11-20T09:10:39;95947.97;;;12.35;100.00
39363;BME280;25088;43.238;23.110;2022-11-20T09:13:05;95931.25;;;12.37;100.00
39363;BME280;25088;43.238;23.110;2022-11-20T09:15:30;95943.66;;;12.24;100.00
39363;BME280;25088;43.238;23.110;2022-11-20T09:18:01;95940.91;;;12.29;100.00
39363;BME280;25088;43.238;23.110;2022-11-20T09:20:28;95917.03;;;12.40;100.00
39363;BME280;25088;43.238;23.110;2022-11-20T09:22:54;95920.97;;;12.19;100.00
39363;BME280;25088;43.238;23.110;2022-11-20T09:25:20;95897.72;;;12.16;100.00
39363;BME280;25088;43.238;23.110;2022-11-20T09:27:46;95886.22;;;12.19;100.00
39363;BME280;25088;43.238;23.110;2022-11-20T09:30:13;95890.81;;;12.29;100.00
39363;BME280;25088;43.238;23.110;2022-11-20T09:32:39;95888.03;;;12.34;100.00
39363;BME280;25088;43.238;23.110;2022-11-20T09:35:05;95870.44;;;12.45;100.00
39363;BME280;25088;43.238;23.110;2022-11-20T09:37:31;95872.31;;;12.55;100.00
39363;BME280;25088;43.238;23.110;2022-11-20T09:39:56;95882.19;;;12.51;100.00
39363;BME280;25088;43.238;23.110;2022-11-20T09:42:40;95880.53;;;12.55;100.00
39363;BME280;25088;43.238;23.110;2022-11-20T09:50:41;95868.13;;;12.97;100.00
39363;BME280;25088;43.238;23.110;2022-11-20T09:53:25;95859.03;;;13.06;100.00
39363;BME280;25088;43.238;23.110;2022-11-20T09:55:54;95858.63;;;13.23;100.00
39363;BME280;25088;43.238;23.110;2022-11-20T09:58:38;95859.19;;;13.49;100.00
39363;BME280;25088;43.238;23.110;2022-11-20T10:01:19;95860.03;;;13.74;100.00
39363;BME280;25088;43.238;23.110;2022-11-20T10:04:01;95846.13;;;13.89;100.00
39363;BME280;25088;43.238;23.110;2022-11-20T10:06:33;95848.28;;;14.11;100.00
39363;BME280;25088;43.238;23.110;2022-11-20T10:20:20;95841.06;;;14.39;100.00
39363;BME280;25088;43.238;23.110;2022-11-20T10:25:39;95862.25;;;14.57;100.00
39363;BME280;25088;43.238;23.110;2022-11-20T10:31:33;95850.03;;;14.44;100.00
39363;BME280;25088;43.238;23.110;2022-11-20T10:34:02;95844.50;;;14.50;100.00
39363;BME280;25088;43.238;23.110;2022-11-20T10:36:34;95853.78;;;14.54;100.00
39363;BME280;25088;43.238;23.110;2022-11-20T10:39:28;95870.59;;;14.28;100.00
39363;BME280;25088;43.238;23.110;2022-11-20T10:41:54;95867.50;;;14.11;100.00
39363;BME280;25088;43.238;23.110;2022-11-20T10:44:24;95870.78;;;14.13;100.00
39363;BME280;25088;43.238;23.110;2022-11-20T10:47:18;95852.41;;;14.13;100.00
39363;BME280;25088;43.238;23.110;2022-11-20T10:50:04;95846.66;;;14.10;100.00
39363;BME280;25088;43.238;23.110;2022-11-20T10:52:44;95864.50;;;13.88;100.00
39363;BME280;25088;43.238;23.110;2022-11-20T10:55:33;95872.88;;;13.78;100.00
39363;BME280;25088;43.238;23.110;2022-11-20T11:00:50;95866.84;;;13.76;100.00
39363;BME280;25088;43.238;23.110;2022-11-20T11:03:27;95852.47;;;13.84;100.00
39363;BME280;25088;43.238;23.110;2022-11-20T11:06:03;95851.25;;;13.95;100.00
39363;BME280;25088;43.238;23.110;2022-11-20T11:08:38;95856.72;;;13.95;100.00
39363;BME280;25088;43.238;23.110;2022-11-20T11:13:45;95828.22;;;13.91;100.00
39363;BME280;25088;43.238;23.110;2022-11-20T11:16:23;95813.28;;;14.03;100.00
39363;BME280;25088;43.238;23.110;2022-11-20T11:18:49;95798.38;;;14.09;100.00
39363;BME280;25088;43.238;23.110;2022-11-20T11:21:21;95824.19;;;14.08;100.00
39363;BME280;25088;43.238;23.110;2022-11-20T11:23:58;95835.06;;;13.94;100.00
39363;BME280;25088;43.238;23.110;2022-11-20T11:26:24;95834.47;;;13.78;100.00
39363;BME280;25088;43.238;23.110;2022-11-20T11:29:02;95836.59;;;13.81;100.00
39363;BME280;25088;43.238;23.110;2022-11-20T11:31:33;95838.13;;;13.68;100.00
39363;BME280;25088;43.238;23.110;2022-11-20T11:34:16;95850.78;;;13.64;100.00
39363;BME280;25088;43.238;23.110;2022-11-20T11:36:47;95882.94;;;13.59;100.00
39363;BME280;25088;43.238;23.110;2022-11-20T11:39:15;95904.03;;;13.34;100.00
39363;BME280;25088;43.238;23.110;2022-11-20T11:41:42;95948.84;;;12.75;100.00
39363;BME280;25088;43.238;23.110;2022-11-20T11:44:20;95980.53;;;12.37;100.00
39363;BME280;25088;43.238;23.110;2022-11-20T11:47:10;95959.31;;;12.13;100.00
39363;BME280;25088;43.238;23.110;2022-11-20T11:49:36;95941.19;;;12.18;100.00
39363;BME280;25088;43.238;23.110;2022-11-20T11:52:18;95929.13;;;12.29;100.00
39363;BME280;25088;43.238;23.110;2022-11-20T11:55:03;95939.25;;;12.28;100.00
39363;BME280;25088;43.238;23.110;2022-11-20T11:58:06;95947.47;;;12.23;100.00
39363;BME280;25088;43.238;23.110;2022-11-20T12:00:37;95964.44;;;12.25;100.00
39363;BME280;25088;43.238;23.110;2022-11-20T12:03:15;95958.34;;;12.44;100.00
39363;BME280;25088;43.238;23.110;2022-11-20T12:05:53;95943.47;;;12.60;100.00
39363;BME280;25088;43.238;23.110;2022-11-20T12:08:49;95926.72;;;12.66;100.00
39363;BME280;25088;43.238;23.110;2022-11-20T12:16:35;95948.72;;;12.96;100.00
39363;BME280;25088;43.238;23.110;2022-11-20T12:19:07;95962.81;;;12.79;100.00
39363;BME280;25088;43.238;23.110;2022-11-20T12:21:41;95953.53;;;12.70;100.00
39363;BME280;25088;43.238;23.110;2022-11-20T12:38:47;95953.34;;;12.56;100.00
39363;BME280;25088;43.238;23.110;2022-11-20T12:41:33;95972.75;;;12.64;100.00
39363;BME280;25088;43.238;23.110;2022-11-20T12:50:37;95978.25;;;12.59;100.00
39363;BME280;25088;43.238;23.110;2022-11-20T13:01:22;95949.47;;;12.62;100.00
39363;BME280;25088;43.238;23.110;2022-11-20T13:07:08;95941.88;;;12.54;100.00
39363;BME280;25088;43.238;23.110;2022-11-20T13:09:40;95953.13;;;12.42;100.00
39363;BME280;25088;43.238;23.110;2022-11-20T13:17:53;95944.53;;;12.09;100.00
39363;BME280;25088;43.238;23.110;2022-11-20T13:20:19;95954.69;;;12.04;100.00
39363;BME280;25088;43.238;23.110;2022-11-20T13:22:50;95950.28;;;12.03;100.00
39363;BME280;25088;43.238;23.110;2022-11-20T13:25:36;95954.34;;;12.15;100.00
39363;BME280;25088;43.238;23.110;2022-11-20T13:30:49;95928.31;;;12.28;100.00
39363;BME280;25088;43.238;23.110;2022-11-20T13:33:28;95926.06;;;12.40;100.00
39363;BME280;25088;43.238;23.110;2022-11-20T13:36:03;95913.66;;;12.53;100.00
39363;BME280;25088;43.238;23.110;2022-11-20T13:38:44;95919.56;;;12.71;100.00
39363;BME280;25088;43.238;23.110;2022-11-20T13:41:11;95931.84;;;12.78;100.00
39363;BME280;25088;43.238;23.110;2022-11-20T13:46:45;95907.72;;;12.80;100.00
39363;BME280;25088;43.238;23.110;2022-11-20T13:49:28;95907.97;;;12.84;100.00
39363;BME280;25088;43.238;23.110;2022-11-20T14:00:15;95907.16;;;12.83;100.00
39363;BME280;25088;43.238;23.110;2022-11-20T14:02:42;95895.81;;;12.61;100.00
39363;BME280;25088;43.238;23.110;2022-11-20T14:05:19;95895.63;;;12.47;100.00
39363;BME280;25088;43.238;23.110;2022-11-20T14:07:45;95890.97;;;12.42;100.00
39363;BME280;25088;43.238;23.110;2022-11-20T14:10:39;95888.03;;;12.34;100.00
39363;BME280;25088;43.238;23.110;2022-11-20T14:13:17;95863.72;;;12.27;100.00
39363;BME280;25088;43.238;23.110;2022-11-20T14:15:43;95889.88;;;12.49;100.00
39363;BME280;25088;43.238;23.110;2022-11-20T14:18:14;95886.56;;;12.52;100.00
39363;BME280;25088;43.238;23.110;2022-11-20T14:20:41;95870.97;;;12.47;100.00
39363;BME280;25088;43.238;23.110;2022-11-20T14:23:09;95876.63;;;12.61;100.00
39363;BME280;25088;43.238;23.110;2022-11-20T14:25:35;95880.97;;;12.67;100.00
39363;BME280;25088;43.238;23.110;2022-11-20T14:28:02;95884.81;;;12.66;100.00
39363;BME280;25088;43.238;23.110;2022-11-20T14:30:42;95877.72;;;12.65;100.00